createdAt,value
2023-08-31T00:01:05.453Z,73.97
2023-08-31T00:03:35.883Z,73.56
2023-08-31T00:06:08.854Z,73.42
2023-08-31T00:08:39.290Z,73.33
2023-08-31T00:11:09.468Z,73.32
2023-08-31T00:13:42.353Z,73.37
2023-08-31T00:16:13.885Z,73.22
2023-08-31T00:18:46.423Z,73.15
2023-08-31T00:21:16.572Z,73.33
2023-08-31T00:23:46.870Z,73.23
2023-08-31T00:26:17.179Z,73.19
2023-08-31T00:28:52.959Z,73.00
2023-08-31T00:31:23.183Z,73.17
2023-08-31T00:33:53.365Z,73.13
2023-08-31T00:36:24.341Z,72.92
2023-08-31T00:38:54.557Z,72.80
2023-08-31T00:41:26.253Z,73.05
2023-08-31T00:43:59.835Z,72.80
2023-08-31T00:46:30.841Z,72.85
2023-08-31T00:49:01.044Z,72.77
2023-08-31T00:51:31.358Z,72.67
2023-08-31T00:54:01.664Z,72.83
2023-08-31T00:56:31.829Z,72.96
2023-08-31T00:59:04.631Z,72.97
2023-08-31T01:01:41.879Z,73.06
2023-08-31T01:04:20.465Z,73.01
2023-08-31T01:06:59.408Z,73.00
2023-08-31T01:09:38.564Z,73.06
2023-08-31T01:12:13.163Z,73.21
2023-08-31T01:14:49.754Z,72.99
2023-08-31T01:17:21.655Z,72.84
2023-08-31T01:19:56.461Z,73.11
2023-08-31T01:22:34.806Z,73.17
2023-08-31T01:25:10.610Z,73.25
2023-08-31T01:27:41.983Z,73.19
2023-08-31T01:30:12.588Z,73.42
2023-08-31T01:32:48.327Z,73.30
2023-08-31T01:35:21.196Z,73.47
2023-08-31T01:37:57.516Z,73.79
2023-08-31T01:40:38.003Z,73.69
2023-08-31T01:43:11.301Z,74.04
2023-08-31T01:45:43.147Z,74.27
2023-08-31T01:48:18.009Z,74.52
2023-08-31T01:50:48.053Z,74.75
2023-08-31T01:53:18.105Z,75.00
2023-08-31T01:55:50.847Z,75.27
2023-08-31T01:58:20.882Z,75.32
2023-08-31T02:00:51.519Z,75.14
2023-08-31T02:03:21.984Z,74.90
2023-08-31T02:05:52.134Z,74.36
2023-08-31T02:08:22.242Z,74.33
2023-08-31T02:10:55.625Z,74.15
2023-08-31T02:13:28.217Z,73.69
2023-08-31T02:15:58.453Z,73.84
2023-08-31T02:18:31.053Z,73.79
2023-08-31T02:21:01.488Z,74.07
2023-08-31T02:23:31.560Z,74.03
2023-08-31T02:26:04.218Z,74.10
2023-08-31T02:28:34.256Z,74.09
2023-08-31T02:31:06.672Z,74.12
2023-08-31T02:33:37.537Z,74.26
2023-08-31T02:36:07.919Z,74.17
2023-08-31T02:38:38.531Z,73.44
2023-08-31T02:41:12.933Z,73.55
2023-08-31T02:43:43.399Z,73.10
2023-08-31T02:46:14.236Z,73.04
2023-08-31T02:48:44.411Z,72.78
2023-08-31T02:51:14.557Z,72.71
2023-08-31T02:53:44.637Z,72.17
2023-08-31T02:56:17.365Z,71.48
2023-08-31T02:58:47.429Z,71.40
2023-08-31T03:01:18.323Z,71.44
2023-08-31T03:03:51.400Z,71.33
2023-08-31T03:06:22.800Z,71.40
2023-08-31T03:08:52.922Z,71.65
2023-08-31T03:11:25.866Z,71.53
2023-08-31T03:13:56.007Z,72.02
2023-08-31T03:16:26.137Z,71.90
2023-08-31T03:18:56.249Z,71.88
2023-08-31T03:21:26.831Z,72.08
2023-08-31T03:23:56.913Z,71.96
2023-08-31T03:26:29.639Z,72.94
2023-08-31T03:29:00.116Z,72.83
2023-08-31T03:31:31.146Z,73.27
2023-08-31T03:34:01.319Z,73.03
2023-08-31T03:36:31.556Z,73.17
2023-08-31T03:39:01.805Z,73.06
2023-08-31T03:41:36.786Z,72.89
2023-08-31T03:44:07.416Z,73.21
2023-08-31T03:46:37.595Z,73.60
2023-08-31T03:49:07.911Z,73.89
2023-08-31T03:51:38.067Z,74.20
2023-08-31T03:54:08.381Z,74.59
2023-08-31T03:56:41.630Z,74.44
2023-08-31T03:59:11.813Z,74.46
2023-08-31T04:01:42.275Z,74.50
2023-08-31T04:04:15.184Z,74.56
2023-08-31T04:06:45.467Z,74.63
2023-08-31T04:09:15.753Z,74.32
2023-08-31T04:11:48.538Z,74.15
2023-08-31T04:14:19.470Z,74.02
2023-08-31T04:16:51.532Z,73.97
2023-08-31T04:19:21.811Z,73.98
2023-08-31T04:21:51.933Z,74.17
2023-08-31T04:24:22.021Z,74.42
2023-08-31T04:26:54.614Z,74.50
2023-08-31T04:29:24.619Z,74.35
2023-08-31T04:31:55.014Z,74.66
2023-08-31T04:34:25.078Z,74.76
2023-08-31T04:36:55.247Z,74.77
2023-08-31T04:39:25.326Z,74.98
2023-08-31T04:41:57.969Z,75.18
2023-08-31T04:44:28.080Z,75.62
2023-08-31T04:46:58.557Z,75.62
2023-08-31T04:49:28.652Z,75.31
2023-08-31T04:52:00.375Z,75.55
2023-08-31T04:54:30.623Z,75.47
2023-08-31T04:57:04.671Z,75.85
2023-08-31T04:59:34.794Z,75.93
2023-08-31T05:02:05.000Z,75.81
2023-08-31T05:04:35.234Z,76.02
2023-08-31T05:07:05.345Z,76.15
2023-08-31T05:09:36.387Z,76.26
2023-08-31T05:12:12.373Z,76.37
2023-08-31T05:14:42.816Z,76.44
2023-08-31T05:17:13.096Z,76.58
2023-08-31T05:19:43.351Z,76.74
2023-08-31T05:22:13.553Z,76.74
2023-08-31T05:24:43.983Z,76.88
2023-08-31T05:27:16.746Z,76.62
2023-08-31T05:29:46.978Z,77.05
2023-08-31T05:32:16.982Z,77.14
2023-08-31T05:34:47.124Z,76.97
2023-08-31T05:37:20.035Z,76.67
2023-08-31T05:39:52.158Z,76.39
2023-08-31T05:42:25.133Z,76.64
2023-08-31T05:44:55.319Z,75.89
2023-08-31T05:47:25.440Z,75.40
2023-08-31T05:49:55.654Z,75.51
2023-08-31T05:52:26.034Z,75.23
2023-08-31T05:54:56.249Z,75.45
2023-08-31T05:57:30.372Z,75.89
2023-08-31T06:00:00.411Z,75.87
2023-08-31T06:02:30.660Z,76.05
2023-08-31T06:05:00.940Z,75.82
2023-08-31T06:07:31.489Z,76.02
2023-08-31T06:10:01.682Z,76.02
2023-08-31T06:12:34.456Z,76.27
2023-08-31T06:15:04.467Z,75.99
2023-08-31T06:17:36.357Z,76.03
2023-08-31T06:20:07.882Z,76.27
2023-08-31T06:22:38.091Z,76.24
2023-08-31T06:25:09.286Z,76.08
2023-08-31T06:27:41.963Z,76.08
2023-08-31T06:30:16.989Z,76.02
2023-08-31T06:32:48.054Z,75.88
2023-08-31T06:35:19.525Z,75.62
2023-08-31T06:37:51.808Z,75.69
2023-08-31T06:40:21.963Z,75.55
2023-08-31T06:42:54.613Z,75.05
2023-08-31T06:45:24.802Z,75.29
2023-08-31T06:47:54.914Z,74.98
2023-08-31T06:50:25.131Z,75.25
2023-08-31T06:52:55.212Z,75.37
2023-08-31T06:55:25.351Z,74.86
2023-08-31T06:57:58.170Z,74.80
2023-08-31T07:00:28.228Z,74.63
2023-08-31T07:02:58.649Z,74.21
2023-08-31T07:05:30.949Z,74.48
2023-08-31T07:08:01.251Z,74.48
2023-08-31T07:10:31.587Z,74.14
2023-08-31T07:13:04.865Z,73.27
2023-08-31T07:15:35.238Z,72.27
2023-08-31T07:18:05.467Z,72.22
2023-08-31T07:20:35.564Z,72.16
2023-08-31T07:23:05.724Z,72.35
2023-08-31T07:25:35.745Z,72.79
2023-08-31T07:28:08.932Z,72.82
2023-08-31T07:30:39.096Z,72.01
2023-08-31T07:33:24.564Z,72.09
2023-08-31T07:35:58.758Z,71.51
2023-08-31T07:38:30.817Z,71.19
2023-08-31T07:41:01.235Z,71.06
2023-08-31T07:43:33.974Z,71.10
2023-08-31T07:46:04.773Z,70.53
2023-08-31T07:48:34.897Z,70.80
2023-08-31T07:51:04.964Z,70.16
2023-08-31T07:53:34.953Z,69.96
2023-08-31T07:56:05.099Z,69.20
2023-08-31T07:58:37.776Z,69.11
2023-08-31T08:01:07.922Z,69.25
2023-08-31T08:03:38.060Z,68.13
2023-08-31T08:06:08.109Z,68.47
2023-08-31T08:08:38.610Z,68.07
2023-08-31T08:11:09.151Z,67.48
2023-08-31T08:13:41.883Z,65.54
2023-08-31T08:16:11.974Z,65.33
2023-08-31T08:18:42.188Z,64.84
2023-08-31T08:21:12.253Z,65.44
2023-08-31T08:23:42.771Z,64.64
2023-08-31T08:26:12.938Z,64.26
2023-08-31T08:28:45.693Z,63.03
2023-08-31T08:31:15.869Z,63.13
2023-08-31T08:33:45.957Z,62.93
2023-08-31T08:36:17.344Z,62.73
2023-08-31T08:38:47.417Z,61.48
2023-08-31T08:41:20.474Z,61.13
2023-08-31T08:43:55.281Z,59.81
2023-08-31T08:46:26.677Z,59.84
2023-08-31T08:48:58.337Z,56.95
2023-08-31T08:51:28.877Z,57.06
2023-08-31T08:54:00.416Z,55.82
2023-08-31T08:56:30.472Z,55.51
2023-08-31T08:59:03.241Z,54.62
2023-08-31T09:01:33.634Z,54.62
2023-08-31T09:04:03.713Z,55.51
2023-08-31T09:06:33.809Z,53.32
2023-08-31T09:09:04.192Z,51.85
2023-08-31T09:11:34.268Z,52.14
2023-08-31T09:14:18.031Z,53.16
2023-08-31T09:16:50.438Z,53.82
2023-08-31T09:19:24.462Z,52.97
2023-08-31T09:21:56.222Z,53.35
2023-08-31T09:24:27.116Z,53.03
2023-08-31T09:26:59.094Z,52.17
2023-08-31T09:29:32.062Z,51.94
2023-08-31T09:32:02.332Z,53.72
2023-08-31T09:34:37.463Z,53.57
2023-08-31T09:37:10.974Z,51.56
2023-08-31T09:39:41.396Z,50.06
2023-08-31T09:42:11.740Z,46.81
2023-08-31T09:44:48.384Z,45.56
2023-08-31T09:47:19.337Z,43.64
2023-08-31T09:49:50.129Z,43.68
2023-08-31T09:52:21.852Z,43.54
2023-08-31T09:54:54.552Z,44.52
2023-08-31T09:57:36.080Z,46.53
2023-08-31T10:00:19.806Z,49.20
2023-08-31T10:02:50.550Z,50.84
2023-08-31T10:05:21.558Z,52.53
2023-08-31T10:07:53.887Z,52.96
2023-08-31T10:10:25.981Z,54.02
2023-08-31T10:12:57.215Z,53.11
2023-08-31T10:15:35.625Z,53.46
2023-08-31T10:18:07.057Z,53.05
2023-08-31T10:20:38.540Z,50.61
2023-08-31T10:23:10.424Z,48.69
2023-08-31T10:26:04.984Z,48.96
2023-08-31T10:28:44.192Z,47.09
2023-08-31T10:31:23.856Z,43.01
2023-08-31T10:34:01.532Z,39.86
2023-08-31T10:36:42.627Z,39.56
2023-08-31T10:39:17.344Z,37.85
2023-08-31T10:41:56.934Z,38.45
2023-08-31T10:44:28.303Z,37.01
2023-08-31T10:47:07.072Z,37.39
2023-08-31T10:49:38.460Z,35.77
2023-08-31T10:54:59.482Z,36.81
2023-08-31T10:57:34.065Z,37.53
2023-08-31T11:00:04.544Z,40.37
2023-08-31T11:02:41.850Z,43.81
2023-08-31T11:05:15.440Z,47.16
2023-08-31T11:07:48.125Z,49.59
2023-08-31T11:10:21.118Z,50.33
2023-08-31T11:12:53.666Z,51.20
2023-08-31T11:15:25.468Z,52.63
2023-08-31T11:17:59.562Z,53.94
2023-08-31T11:20:31.733Z,55.26
2023-08-31T11:23:02.324Z,56.60
2023-08-31T11:25:35.144Z,57.06
2023-08-31T11:28:07.038Z,58.25
2023-08-31T11:30:38.166Z,58.46
2023-08-31T11:33:12.757Z,58.83
2023-08-31T11:35:47.124Z,58.13
2023-08-31T11:38:17.329Z,59.19
2023-08-31T11:40:47.546Z,58.82
2023-08-31T11:43:21.076Z,54.92
2023-08-31T11:45:51.862Z,55.23
2023-08-31T11:48:24.878Z,52.52
2023-08-31T11:50:55.993Z,50.32
2023-08-31T11:53:26.216Z,47.92
2023-08-31T11:55:56.803Z,46.22
2023-08-31T11:58:27.265Z,44.33
2023-08-31T12:01:01.863Z,44.14
2023-08-31T12:03:50.704Z,46.24
2023-08-31T12:06:22.196Z,43.71
2023-08-31T12:08:52.956Z,44.32
2023-08-31T12:11:23.863Z,41.45
2023-08-31T12:13:54.692Z,43.90
2023-08-31T12:16:24.907Z,42.92
2023-08-31T12:19:02.888Z,44.70
2023-08-31T12:21:33.036Z,44.71
2023-08-31T12:24:04.871Z,47.98
2023-08-31T12:26:35.436Z,49.42
2023-08-31T12:29:06.068Z,51.71
2023-08-31T12:31:36.434Z,52.85
2023-08-31T12:34:09.876Z,53.28
2023-08-31T12:36:42.365Z,53.08
2023-08-31T12:39:13.491Z,52.91
2023-08-31T12:41:44.331Z,53.54
2023-08-31T12:44:14.489Z,52.94
2023-08-31T12:46:44.645Z,50.59
2023-08-31T12:49:17.622Z,51.89
2023-08-31T12:51:47.756Z,52.64
2023-08-31T12:54:17.898Z,52.10
2023-08-31T12:56:48.119Z,53.56
2023-08-31T12:59:18.275Z,55.11
2023-08-31T13:01:48.446Z,55.15
2023-08-31T13:04:22.889Z,55.43
2023-08-31T13:06:53.205Z,55.48
2023-08-31T13:09:23.279Z,55.01
2023-08-31T13:11:54.048Z,54.83
2023-08-31T13:14:24.409Z,52.76
2023-08-31T13:16:54.850Z,53.21
2023-08-31T13:19:29.782Z,53.82
2023-08-31T13:22:00.210Z,53.08
2023-08-31T13:24:30.457Z,53.83
2023-08-31T13:27:01.286Z,52.69
2023-08-31T13:29:31.559Z,52.45
2023-08-31T13:32:01.680Z,53.06
2023-08-31T13:34:34.467Z,52.10
2023-08-31T13:37:05.348Z,52.27
2023-08-31T13:39:38.650Z,51.91
2023-08-31T13:42:09.076Z,52.75
2023-08-31T13:44:39.459Z,51.12
2023-08-31T13:47:09.688Z,50.64
2023-08-31T13:49:42.400Z,51.95
2023-08-31T13:52:13.262Z,53.63
2023-08-31T13:54:43.717Z,53.63
2023-08-31T13:57:18.640Z,54.47
2023-08-31T13:59:48.864Z,54.79
2023-08-31T14:02:18.967Z,53.16
2023-08-31T14:04:58.407Z,51.15
2023-08-31T14:07:29.138Z,50.61
2023-08-31T14:09:59.324Z,50.03
2023-08-31T14:12:29.440Z,50.17
2023-08-31T14:14:59.557Z,50.74
2023-08-31T14:17:29.783Z,50.32
2023-08-31T14:20:07.051Z,50.49
2023-08-31T14:22:37.657Z,51.54
2023-08-31T14:25:09.067Z,52.64
2023-08-31T14:27:39.134Z,52.46
2023-08-31T14:30:10.621Z,52.50
2023-08-31T14:32:40.869Z,53.33
2023-08-31T14:35:13.929Z,53.33
2023-08-31T14:37:45.188Z,53.99
2023-08-31T14:40:16.006Z,52.85
2023-08-31T14:42:46.106Z,53.53
2023-08-31T14:45:16.186Z,53.57
2023-08-31T14:47:46.432Z,54.17
2023-08-31T14:50:19.186Z,53.71
2023-08-31T14:52:49.370Z,53.89
2023-08-31T14:55:19.624Z,52.85
2023-08-31T14:57:49.731Z,53.40
2023-08-31T15:00:21.028Z,53.62
2023-08-31T15:02:51.581Z,53.33
2023-08-31T15:05:26.663Z,53.57
2023-08-31T15:07:56.733Z,53.71
2023-08-31T15:10:27.225Z,53.28
2023-08-31T15:12:59.904Z,54.05
2023-08-31T15:15:30.578Z,53.11
2023-08-31T15:18:00.759Z,53.46
2023-08-31T15:20:33.511Z,53.13
2023-08-31T15:23:03.922Z,52.46
2023-08-31T15:25:34.268Z,53.19
2023-08-31T15:28:06.980Z,52.72
2023-08-31T15:30:38.100Z,52.97
2023-08-31T15:33:09.039Z,53.30
2023-08-31T15:35:41.882Z,52.35
2023-08-31T15:38:12.379Z,52.54
2023-08-31T15:40:42.613Z,52.87
2023-08-31T15:43:12.696Z,52.70
2023-08-31T15:45:42.766Z,52.16
2023-08-31T15:48:12.997Z,51.88
2023-08-31T15:50:45.919Z,52.17
2023-08-31T15:53:16.030Z,52.68
2023-08-31T15:55:50.099Z,53.00
2023-08-31T15:58:21.702Z,53.63
2023-08-31T16:00:51.820Z,53.45
2023-08-31T16:03:22.032Z,53.46
2023-08-31T16:05:55.338Z,53.42
2023-08-31T16:08:25.431Z,52.63
2023-08-31T16:10:55.586Z,52.12
2023-08-31T16:13:25.770Z,52.43
2023-08-31T16:15:56.849Z,52.39
2023-08-31T16:18:27.233Z,52.11
2023-08-31T16:21:02.924Z,52.90
2023-08-31T16:23:33.189Z,52.69
2023-08-31T16:26:03.815Z,53.07
2023-08-31T16:28:34.186Z,52.84
2023-08-31T16:31:04.966Z,53.21
2023-08-31T16:33:35.388Z,52.43
2023-08-31T16:36:08.665Z,53.17
2023-08-31T16:38:38.808Z,53.87
2023-08-31T16:41:09.136Z,53.75
2023-08-31T16:43:39.335Z,54.16
2023-08-31T16:46:09.459Z,54.64
2023-08-31T16:48:39.749Z,55.12
2023-08-31T16:51:12.525Z,55.26
2023-08-31T16:53:42.687Z,55.82
2023-08-31T16:56:13.533Z,55.62
2023-08-31T16:58:43.618Z,55.77
2023-08-31T17:01:13.796Z,55.88
2023-08-31T17:03:44.172Z,55.98
2023-08-31T17:06:17.000Z,55.95
2023-08-31T17:08:47.073Z,56.11
2023-08-31T17:11:17.142Z,57.13
2023-08-31T17:13:47.213Z,56.85
2023-08-31T17:16:17.376Z,56.70
2023-08-31T17:18:47.460Z,56.70
2023-08-31T17:21:20.278Z,57.12
2023-08-31T17:23:50.456Z,57.23
2023-08-31T17:26:24.817Z,57.39
2023-08-31T17:28:55.047Z,57.80
2023-08-31T17:31:25.384Z,58.00
2023-08-31T17:33:58.716Z,58.39
2023-08-31T17:36:31.621Z,58.60
2023-08-31T17:39:01.639Z,58.46
2023-08-31T17:41:31.813Z,59.05
2023-08-31T17:44:01.907Z,59.33
2023-08-31T17:46:32.055Z,59.36
2023-08-31T17:49:02.370Z,59.73
2023-08-31T17:51:35.120Z,59.79
2023-08-31T17:54:05.268Z,60.11
2023-08-31T17:56:35.421Z,59.85
2023-08-31T17:59:06.072Z,59.89
2023-08-31T18:01:36.791Z,59.91
2023-08-31T18:04:07.563Z,59.78
2023-08-31T18:06:40.270Z,59.98
2023-08-31T18:09:10.526Z,60.14
2023-08-31T18:11:41.137Z,60.53
2023-08-31T18:14:11.248Z,60.61
2023-08-31T18:16:41.400Z,61.17
2023-08-31T18:19:11.547Z,61.22
2023-08-31T18:21:44.302Z,62.04
2023-08-31T18:24:14.502Z,62.46
2023-08-31T18:26:45.976Z,62.73
2023-08-31T18:29:16.056Z,62.42
2023-08-31T18:31:46.165Z,62.95
2023-08-31T18:34:16.385Z,62.97
2023-08-31T18:36:49.149Z,63.90
2023-08-31T18:39:19.519Z,63.64
2023-08-31T18:41:49.539Z,63.71
2023-08-31T18:44:21.011Z,64.18
2023-08-31T18:46:51.192Z,64.40
2023-08-31T18:49:21.415Z,64.72
2023-08-31T18:51:54.114Z,64.40
2023-08-31T18:54:24.275Z,64.45
2023-08-31T18:56:54.414Z,64.53
2023-08-31T18:59:24.507Z,64.33
2023-08-31T19:01:54.671Z,64.21
2023-08-31T19:04:24.752Z,64.40
2023-08-31T19:06:57.540Z,64.58
2023-08-31T19:09:30.643Z,64.67
2023-08-31T19:12:00.884Z,64.85
2023-08-31T19:14:30.983Z,65.18
2023-08-31T19:17:01.076Z,65.34
2023-08-31T19:19:31.323Z,65.64
2023-08-31T19:22:04.118Z,66.01
2023-08-31T19:24:34.258Z,66.00
2023-08-31T19:27:04.531Z,66.17
2023-08-31T19:29:34.637Z,66.21
2023-08-31T19:32:04.945Z,66.31
2023-08-31T19:34:36.555Z,66.26
2023-08-31T19:37:09.376Z,66.03
2023-08-31T19:39:39.516Z,66.21
2023-08-31T19:42:11.104Z,66.23
2023-08-31T19:44:41.256Z,66.28
2023-08-31T19:47:15.405Z,66.40
2023-08-31T19:49:45.830Z,66.72
2023-08-31T19:52:18.515Z,66.62
2023-08-31T19:54:48.658Z,66.71
2023-08-31T19:57:18.756Z,66.99
2023-08-31T19:59:48.869Z,67.23
2023-08-31T20:02:18.996Z,67.64
2023-08-31T20:04:49.113Z,67.75
2023-08-31T20:07:21.892Z,67.72
2023-08-31T20:09:52.316Z,68.02
2023-08-31T20:12:22.515Z,68.24
2023-08-31T20:14:53.304Z,68.72
2023-08-31T20:17:23.443Z,68.73
2023-08-31T20:19:57.264Z,68.77
2023-08-31T20:22:30.083Z,68.92
2023-08-31T20:25:01.228Z,69.12
2023-08-31T20:27:31.423Z,68.67
2023-08-31T20:30:01.476Z,69.07
2023-08-31T20:32:32.084Z,69.27
2023-08-31T20:35:02.334Z,69.08
2023-08-31T20:37:36.098Z,69.03
2023-08-31T20:40:09.844Z,69.30
2023-08-31T20:42:40.126Z,69.41
2023-08-31T20:45:14.472Z,69.55
2023-08-31T20:47:46.104Z,69.82
2023-08-31T20:50:16.764Z,69.93
2023-08-31T20:52:51.284Z,69.94
2023-08-31T20:55:21.462Z,69.84
2023-08-31T20:57:51.581Z,70.09
2023-08-31T21:00:21.899Z,70.25
2023-08-31T21:02:52.664Z,70.35
2023-08-31T21:05:23.119Z,70.46
2023-08-31T21:07:55.930Z,70.52
2023-08-31T21:10:25.998Z,70.92
2023-08-31T21:12:56.316Z,71.09
2023-08-31T21:15:26.476Z,71.33
2023-08-31T21:17:56.805Z,71.27
2023-08-31T21:20:28.065Z,71.23
2023-08-31T21:23:01.190Z,71.33
2023-08-31T21:25:31.329Z,71.68
2023-08-31T21:28:01.568Z,71.76
2023-08-31T21:30:36.490Z,71.87
2023-08-31T21:33:07.452Z,72.10
2023-08-31T21:35:39.646Z,72.04
2023-08-31T21:38:17.128Z,72.07
2023-08-31T21:40:48.731Z,72.10
2023-08-31T21:43:20.753Z,72.07
2023-08-31T21:45:50.848Z,72.15
2023-08-31T21:48:20.953Z,72.30
2023-08-31T21:50:51.402Z,72.33
2023-08-31T21:53:25.318Z,72.47
2023-08-31T21:55:55.500Z,72.62
2023-08-31T21:58:25.671Z,72.78
2023-08-31T22:00:58.450Z,72.62
2023-08-31T22:03:28.906Z,72.70
2023-08-31T22:06:01.450Z,72.71
2023-08-31T22:08:36.439Z,72.78
2023-08-31T22:11:07.780Z,72.75
2023-08-31T22:13:38.635Z,72.75
2023-08-31T22:16:16.051Z,72.84
2023-08-31T22:18:54.391Z,72.66
2023-08-31T22:21:27.660Z,72.62
2023-08-31T22:24:00.850Z,72.56
2023-08-31T22:26:31.185Z,72.66
2023-08-31T22:29:01.736Z,72.64
2023-08-31T22:31:32.136Z,72.67
2023-08-31T22:34:03.727Z,72.64
2023-08-31T22:36:33.821Z,72.65
2023-08-31T22:39:07.169Z,72.67
2023-08-31T22:41:39.949Z,72.80
2023-08-31T22:44:10.142Z,72.71
2023-08-31T22:46:40.263Z,72.71
2023-08-31T22:49:10.373Z,72.53
2023-08-31T22:51:41.548Z,72.49
2023-08-31T22:54:14.270Z,72.45
2023-08-31T22:56:44.623Z,72.70
2023-08-31T22:59:14.828Z,72.80
2023-08-31T23:01:45.025Z,72.83
2023-08-31T23:04:15.680Z,73.08
2023-08-31T23:06:45.877Z,72.83
2023-08-31T23:09:19.053Z,72.89
2023-08-31T23:11:49.270Z,73.21
2023-08-31T23:14:19.398Z,73.13
2023-08-31T23:16:49.566Z,73.19
2023-08-31T23:19:19.797Z,73.56
2023-08-31T23:21:50.017Z,73.58
2023-08-31T23:24:22.857Z,73.66
2023-08-31T23:26:53.329Z,73.88
2023-08-31T23:29:23.523Z,74.02
2023-08-31T23:31:53.548Z,74.11
2023-08-31T23:34:26.596Z,74.21
2023-08-31T23:36:56.882Z,74.40
2023-08-31T23:39:29.621Z,74.65
2023-08-31T23:41:59.815Z,74.92
2023-08-31T23:44:29.914Z,75.10
2023-08-31T23:46:59.977Z,75.38
2023-08-31T23:49:30.301Z,75.41
2023-08-31T23:52:00.476Z,75.54
2023-08-31T23:54:35.090Z,75.52
2023-08-31T23:57:05.294Z,75.52
2023-08-31T23:59:35.478Z,75.64
